sensor_id;sensor_type;location;lat;lon;timestamp;P1;durP1;ratioP1;P2;durP2;ratioP2
19897;SDS011;10111;50.814;4.572;2022-10-17T00:01:50;2.90;;;2.63;;
19897;SDS011;10111;50.814;4.572;2022-10-17T00:04:16;3.73;;;3.27;;
19897;SDS011;10111;50.814;4.572;2022-10-17T00:06:41;3.37;;;3.07;;
19897;SDS011;10111;50.814;4.572;2022-10-17T00:09:07;4.17;;;2.30;;
19897;SDS011;10111;50.814;4.572;2022-10-17T00:11:33;3.60;;;2.87;;
19897;SDS011;10111;50.814;4.572;2022-10-17T00:13:59;4.07;;;2.97;;
19897;SDS011;10111;50.814;4.572;2022-10-17T00:16:30;3.10;;;2.70;;
19897;SDS011;10111;50.814;4.572;2022-10-17T00:18:58;4.83;;;3.40;;
19897;SDS011;10111;50.814;4.572;2022-10-17T00:21:24;5.37;;;3.33;;
19897;SDS011;10111;50.814;4.572;2022-10-17T00:23:51;3.27;;;2.93;;
19897;SDS011;10111;50.814;4.572;2022-10-17T00:26:17;3.83;;;3.30;;
19897;SDS011;10111;50.814;4.572;2022-10-17T00:28:45;4.33;;;3.00;;
19897;SDS011;10111;50.814;4.572;2022-10-17T00:31:12;3.63;;;2.73;;
19897;SDS011;10111;50.814;4.572;2022-10-17T00:33:38;3.07;;;2.50;;
19897;SDS011;10111;50.814;4.572;2022-10-17T00:36:08;3.93;;;3.10;;
19897;SDS011;10111;50.814;4.572;2022-10-17T00:38:34;3.27;;;2.63;;
19897;SDS011;10111;50.814;4.572;2022-10-17T00:41:00;3.23;;;2.80;;
19897;SDS011;10111;50.814;4.572;2022-10-17T00:43:27;3.37;;;2.93;;
19897;SDS011;10111;50.814;4.572;2022-10-17T00:45:53;5.73;;;2.77;;
19897;SDS011;10111;50.814;4.572;2022-10-17T00:48:19;3.43;;;2.83;;
19897;SDS011;10111;50.814;4.572;2022-10-17T00:50:48;3.03;;;2.50;;
19897;SDS011;10111;50.814;4.572;2022-10-17T00:53:14;3.63;;;2.90;;
19897;SDS011;10111;50.814;4.572;2022-10-17T00:55:51;4.87;;;3.50;;
19897;SDS011;10111;50.814;4.572;2022-10-17T00:58:18;7.70;;;3.30;;
19897;SDS011;10111;50.814;4.572;2022-10-17T01:00:45;3.30;;;2.80;;
19897;SDS011;10111;50.814;4.572;2022-10-17T01:03:12;4.17;;;3.73;;
19897;SDS011;10111;50.814;4.572;2022-10-17T01:05:38;4.27;;;3.83;;
19897;SDS011;10111;50.814;4.572;2022-10-17T01:08:05;5.93;;;3.50;;
19897;SDS011;10111;50.814;4.572;2022-10-17T01:11:35;8.77;;;4.10;;
19897;SDS011;10111;50.814;4.572;2022-10-17T01:13:41;5.10;;;4.03;;
19897;SDS011;10111;50.814;4.572;2022-10-17T01:16:16;5.87;;;4.27;;
19897;SDS011;10111;50.814;4.572;2022-10-17T01:22:07;5.60;;;4.33;;
19897;SDS011;10111;50.814;4.572;2022-10-17T01:36:10;8.43;;;5.57;;
19897;SDS011;10111;50.814;4.572;2022-10-17T01:38:53;9.13;;;4.70;;
19897;SDS011;10111;50.814;4.572;2022-10-17T01:44:31;9.33;;;5.03;;
19897;SDS011;10111;50.814;4.572;2022-10-17T01:47:07;6.20;;;4.77;;
19897;SDS011;10111;50.814;4.572;2022-10-17T01:49:36;6.90;;;4.80;;
19897;SDS011;10111;50.814;4.572;2022-10-17T01:52:09;6.83;;;5.17;;
19897;SDS011;10111;50.814;4.572;2022-10-17T01:54:42;7.50;;;4.90;;
19897;SDS011;10111;50.814;4.572;2022-10-17T01:57:16;5.87;;;4.57;;
19897;SDS011;10111;50.814;4.572;2022-10-17T02:00:02;8.03;;;4.83;;
19897;SDS011;10111;50.814;4.572;2022-10-17T02:02:30;6.03;;;5.43;;
19897;SDS011;10111;50.814;4.572;2022-10-17T02:04:56;7.23;;;5.70;;
19897;SDS011;10111;50.814;4.572;2022-10-17T02:07:23;8.17;;;5.47;;
19897;SDS011;10111;50.814;4.572;2022-10-17T02:09:48;5.73;;;5.13;;
19897;SDS011;10111;50.814;4.572;2022-10-17T02:20:42;9.17;;;5.53;;
19897;SDS011;10111;50.814;4.572;2022-10-17T02:23:29;8.97;;;5.93;;
19897;SDS011;10111;50.814;4.572;2022-10-17T02:26:09;6.33;;;4.23;;
19897;SDS011;10111;50.814;4.572;2022-10-17T02:28:46;7.67;;;5.70;;
19897;SDS011;10111;50.814;4.572;2022-10-17T02:31:20;4.23;;;3.67;;
19897;SDS011;10111;50.814;4.572;2022-10-17T02:33:52;6.27;;;4.83;;
19897;SDS011;10111;50.814;4.572;2022-10-17T02:36:23;7.77;;;4.80;;
19897;SDS011;10111;50.814;4.572;2022-10-17T02:38:53;6.83;;;5.20;;
19897;SDS011;10111;50.814;4.572;2022-10-17T02:41:19;7.63;;;5.17;;
19897;SDS011;10111;50.814;4.572;2022-10-17T02:43:47;5.07;;;4.20;;
19897;SDS011;10111;50.814;4.572;2022-10-17T02:46:15;7.90;;;4.93;;
19897;SDS011;10111;50.814;4.572;2022-10-17T02:49:11;5.67;;;4.60;;
19897;SDS011;10111;50.814;4.572;2022-10-17T03:00:04;6.00;;;4.80;;
19897;SDS011;10111;50.814;4.572;2022-10-17T03:02:39;6.60;;;4.83;;
19897;SDS011;10111;50.814;4.572;2022-10-17T03:05:19;6.27;;;4.57;;
19897;SDS011;10111;50.814;4.572;2022-10-17T03:07:50;6.50;;;5.20;;
19897;SDS011;10111;50.814;4.572;2022-10-17T03:10:16;10.00;;;5.00;;
19897;SDS011;10111;50.814;4.572;2022-10-17T03:12:43;6.87;;;5.10;;
19897;SDS011;10111;50.814;4.572;2022-10-17T03:15:08;8.07;;;5.63;;
19897;SDS011;10111;50.814;4.572;2022-10-17T03:17:35;4.70;;;4.23;;
19897;SDS011;10111;50.814;4.572;2022-10-17T03:20:01;10.23;;;5.30;;
19897;SDS011;10111;50.814;4.572;2022-10-17T03:22:26;9.33;;;4.87;;
19897;SDS011;10111;50.814;4.572;2022-10-17T03:24:52;8.27;;;4.93;;
19897;SDS011;10111;50.814;4.572;2022-10-17T03:27:18;7.50;;;5.33;;
19897;SDS011;10111;50.814;4.572;2022-10-17T03:29:43;6.30;;;5.00;;
19897;SDS011;10111;50.814;4.572;2022-10-17T03:32:09;10.20;;;7.33;;
19897;SDS011;10111;50.814;4.572;2022-10-17T03:34:35;13.13;;;5.63;;
19897;SDS011;10111;50.814;4.572;2022-10-17T03:37:00;8.40;;;5.13;;
19897;SDS011;10111;50.814;4.572;2022-10-17T03:39:26;5.33;;;4.70;;
19897;SDS011;10111;50.814;4.572;2022-10-17T03:41:51;6.33;;;5.73;;
19897;SDS011;10111;50.814;4.572;2022-10-17T03:44:17;10.13;;;5.90;;
19897;SDS011;10111;50.814;4.572;2022-10-17T03:46:43;7.77;;;5.30;;
19897;SDS011;10111;50.814;4.572;2022-10-17T03:49:08;5.80;;;4.87;;
19897;SDS011;10111;50.814;4.572;2022-10-17T03:51:34;7.10;;;5.27;;
19897;SDS011;10111;50.814;4.572;2022-10-17T03:54:00;7.93;;;5.60;;
19897;SDS011;10111;50.814;4.572;2022-10-17T03:56:26;7.07;;;4.80;;
19897;SDS011;10111;50.814;4.572;2022-10-17T03:58:52;7.83;;;5.33;;
19897;SDS011;10111;50.814;4.572;2022-10-17T04:01:19;5.10;;;4.57;;
19897;SDS011;10111;50.814;4.572;2022-10-17T04:03:53;6.47;;;4.77;;
19897;SDS011;10111;50.814;4.572;2022-10-17T04:06:19;7.10;;;4.40;;
19897;SDS011;10111;50.814;4.572;2022-10-17T04:08:46;5.67;;;4.80;;
19897;SDS011;10111;50.814;4.572;2022-10-17T04:11:21;5.37;;;4.60;;
19897;SDS011;10111;50.814;4.572;2022-10-17T04:13:46;9.40;;;4.57;;
19897;SDS011;10111;50.814;4.572;2022-10-17T04:16:16;5.10;;;4.17;;
19897;SDS011;10111;50.814;4.572;2022-10-17T04:18:42;6.03;;;5.03;;
19897;SDS011;10111;50.814;4.572;2022-10-17T04:21:09;6.97;;;4.93;;
19897;SDS011;10111;50.814;4.572;2022-10-17T04:23:35;6.87;;;4.90;;
19897;SDS011;10111;50.814;4.572;2022-10-17T04:26:01;6.90;;;4.63;;
19897;SDS011;10111;50.814;4.572;2022-10-17T04:28:27;7.90;;;4.57;;
19897;SDS011;10111;50.814;4.572;2022-10-17T04:30:57;7.30;;;5.00;;
19897;SDS011;10111;50.814;4.572;2022-10-17T04:33:24;5.53;;;4.77;;
19897;SDS011;10111;50.814;4.572;2022-10-17T04:35:56;7.17;;;4.97;;
19897;SDS011;10111;50.814;4.572;2022-10-17T04:38:23;6.80;;;4.90;;
19897;SDS011;10111;50.814;4.572;2022-10-17T04:40:49;6.10;;;4.50;;
19897;SDS011;10111;50.814;4.572;2022-10-17T04:43:14;5.30;;;4.80;;
19897;SDS011;10111;50.814;4.572;2022-10-17T04:45:40;6.60;;;5.90;;
19897;SDS011;10111;50.814;4.572;2022-10-17T04:48:06;8.67;;;4.77;;
19897;SDS011;10111;50.814;4.572;2022-10-17T04:50:31;5.87;;;4.87;;
19897;SDS011;10111;50.814;4.572;2022-10-17T04:52:57;7.83;;;4.47;;
19897;SDS011;10111;50.814;4.572;2022-10-17T04:55:23;6.93;;;4.70;;
19897;SDS011;10111;50.814;4.572;2022-10-17T04:57:49;7.77;;;5.27;;
19897;SDS011;10111;50.814;4.572;2022-10-17T05:00:14;6.77;;;5.77;;
19897;SDS011;10111;50.814;4.572;2022-10-17T05:02:40;5.47;;;4.50;;
19897;SDS011;10111;50.814;4.572;2022-10-17T05:05:06;7.23;;;5.03;;
19897;SDS011;10111;50.814;4.572;2022-10-17T05:07:32;6.27;;;4.93;;
19897;SDS011;10111;50.814;4.572;2022-10-17T05:09:57;7.17;;;4.17;;
19897;SDS011;10111;50.814;4.572;2022-10-17T05:12:23;6.00;;;4.77;;
19897;SDS011;10111;50.814;4.572;2022-10-17T05:14:49;6.33;;;5.70;;
19897;SDS011;10111;50.814;4.572;2022-10-17T05:17:15;7.70;;;5.07;;
19897;SDS011;10111;50.814;4.572;2022-10-17T05:19:40;5.73;;;4.50;;
19897;SDS011;10111;50.814;4.572;2022-10-17T05:22:06;6.67;;;5.90;;
19897;SDS011;10111;50.814;4.572;2022-10-17T05:24:32;7.90;;;4.50;;
19897;SDS011;10111;50.814;4.572;2022-10-17T05:26:57;5.60;;;4.80;;
19897;SDS011;10111;50.814;4.572;2022-10-17T05:29:23;8.60;;;4.47;;
19897;SDS011;10111;50.814;4.572;2022-10-17T05:31:48;5.10;;;4.60;;
19897;SDS011;10111;50.814;4.572;2022-10-17T05:34:14;4.83;;;4.03;;
19897;SDS011;10111;50.814;4.572;2022-10-17T05:36:40;6.20;;;4.47;;
19897;SDS011;10111;50.814;4.572;2022-10-17T05:39:05;5.90;;;4.73;;
19897;SDS011;10111;50.814;4.572;2022-10-17T05:41:32;6.73;;;4.87;;
19897;SDS011;10111;50.814;4.572;2022-10-17T05:43:58;5.40;;;4.60;;
19897;SDS011;10111;50.814;4.572;2022-10-17T05:46:24;7.10;;;4.53;;
19897;SDS011;10111;50.814;4.572;2022-10-17T05:48:49;5.10;;;4.60;;
19897;SDS011;10111;50.814;4.572;2022-10-17T05:51:15;6.20;;;5.10;;
19897;SDS011;10111;50.814;4.572;2022-10-17T05:53:41;5.73;;;4.60;;
19897;SDS011;10111;50.814;4.572;2022-10-17T05:56:07;8.53;;;4.80;;
19897;SDS011;10111;50.814;4.572;2022-10-17T05:58:34;8.27;;;5.37;;
19897;SDS011;10111;50.814;4.572;2022-10-17T06:01:02;9.33;;;6.27;;
19897;SDS011;10111;50.814;4.572;2022-10-17T06:03:29;6.50;;;5.20;;
19897;SDS011;10111;50.814;4.572;2022-10-17T06:05:56;9.67;;;5.23;;
19897;SDS011;10111;50.814;4.572;2022-10-17T06:08:34;7.63;;;4.60;;
19897;SDS011;10111;50.814;4.572;2022-10-17T06:11:00;6.97;;;4.97;;
19897;SDS011;10111;50.814;4.572;2022-10-17T06:13:26;6.23;;;4.57;;
19897;SDS011;10111;50.814;4.572;2022-10-17T06:15:52;5.13;;;4.47;;
19897;SDS011;10111;50.814;4.572;2022-10-17T06:18:18;7.73;;;4.67;;
19897;SDS011;10111;50.814;4.572;2022-10-17T06:20:44;5.73;;;4.43;;
19897;SDS011;10111;50.814;4.572;2022-10-17T06:23:10;5.03;;;4.10;;
19897;SDS011;10111;50.814;4.572;2022-10-17T06:25:35;4.27;;;3.87;;
19897;SDS011;10111;50.814;4.572;2022-10-17T06:28:01;6.40;;;5.13;;
19897;SDS011;10111;50.814;4.572;2022-10-17T06:30:27;4.77;;;3.93;;
19897;SDS011;10111;50.814;4.572;2022-10-17T06:32:52;5.63;;;4.27;;
19897;SDS011;10111;50.814;4.572;2022-10-17T06:35:18;6.27;;;4.50;;
19897;SDS011;10111;50.814;4.572;2022-10-17T06:37:44;5.13;;;4.03;;
19897;SDS011;10111;50.814;4.572;2022-10-17T06:40:10;7.67;;;4.47;;
19897;SDS011;10111;50.814;4.572;2022-10-17T06:42:40;7.27;;;5.53;;
19897;SDS011;10111;50.814;4.572;2022-10-17T06:45:06;8.37;;;4.37;;
19897;SDS011;10111;50.814;4.572;2022-10-17T06:47:32;4.40;;;3.97;;
19897;SDS011;10111;50.814;4.572;2022-10-17T06:49:59;5.07;;;4.47;;
19897;SDS011;10111;50.814;4.572;2022-10-17T06:52:24;6.50;;;4.90;;
19897;SDS011;10111;50.814;4.572;2022-10-17T06:54:50;10.73;;;4.93;;
19897;SDS011;10111;50.814;4.572;2022-10-17T06:57:16;7.33;;;4.93;;
19897;SDS011;10111;50.814;4.572;2022-10-17T06:59:42;6.40;;;4.70;;
19897;SDS011;10111;50.814;4.572;2022-10-17T07:02:08;6.27;;;4.70;;
19897;SDS011;10111;50.814;4.572;2022-10-17T07:04:35;9.37;;;4.80;;
19897;SDS011;10111;50.814;4.572;2022-10-17T07:07:00;6.73;;;5.20;;
19897;SDS011;10111;50.814;4.572;2022-10-17T07:09:29;7.90;;;4.97;;
19897;SDS011;10111;50.814;4.572;2022-10-17T07:11:55;6.20;;;5.30;;
19897;SDS011;10111;50.814;4.572;2022-10-17T07:14:21;7.97;;;4.50;;
19897;SDS011;10111;50.814;4.572;2022-10-17T07:16:47;5.33;;;4.70;;
19897;SDS011;10111;50.814;4.572;2022-10-17T07:19:13;7.97;;;4.60;;
19897;SDS011;10111;50.814;4.572;2022-10-17T07:21:38;6.43;;;4.23;;
19897;SDS011;10111;50.814;4.572;2022-10-17T07:24:04;5.03;;;4.47;;
19897;SDS011;10111;50.814;4.572;2022-10-17T07:26:31;4.77;;;3.70;;
19897;SDS011;10111;50.814;4.572;2022-10-17T07:28:57;4.30;;;3.70;;
19897;SDS011;10111;50.814;4.572;2022-10-17T07:31:22;6.30;;;4.83;;
19897;SDS011;10111;50.814;4.572;2022-10-17T07:33:48;6.07;;;4.67;;
19897;SDS011;10111;50.814;4.572;2022-10-17T07:36:15;6.87;;;4.27;;
19897;SDS011;10111;50.814;4.572;2022-10-17T07:38:41;5.30;;;4.03;;
19897;SDS011;10111;50.814;4.572;2022-10-17T07:41:07;4.10;;;3.60;;
19897;SDS011;10111;50.814;4.572;2022-10-17T07:43:34;10.53;;;5.67;;
19897;SDS011;10111;50.814;4.572;2022-10-17T07:46:01;7.83;;;4.60;;
19897;SDS011;10111;50.814;4.572;2022-10-17T07:48:28;3.73;;;3.43;;
19897;SDS011;10111;50.814;4.572;2022-10-17T07:50:54;4.17;;;3.73;;
19897;SDS011;10111;50.814;4.572;2022-10-17T07:53:20;6.53;;;4.40;;
19897;SDS011;10111;50.814;4.572;2022-10-17T07:55:46;6.43;;;4.50;;
19897;SDS011;10111;50.814;4.572;2022-10-17T07:58:13;5.03;;;4.10;;
19897;SDS011;10111;50.814;4.572;2022-10-17T08:00:39;5.57;;;4.23;;
19897;SDS011;10111;50.814;4.572;2022-10-17T08:03:05;6.47;;;4.53;;
19897;SDS011;10111;50.814;4.572;2022-10-17T08:05:31;5.33;;;4.03;;
19897;SDS011;10111;50.814;4.572;2022-10-17T08:07:57;6.63;;;4.07;;
19897;SDS011;10111;50.814;4.572;2022-10-17T08:10:23;6.67;;;4.23;;
19897;SDS011;10111;50.814;4.572;2022-10-17T08:12:52;6.60;;;4.70;;
19897;SDS011;10111;50.814;4.572;2022-10-17T08:15:18;5.83;;;4.57;;
19897;SDS011;10111;50.814;4.572;2022-10-17T08:17:44;7.13;;;4.53;;
19897;SDS011;10111;50.814;4.572;2022-10-17T08:20:10;7.43;;;5.07;;
19897;SDS011;10111;50.814;4.572;2022-10-17T08:22:36;5.27;;;4.00;;
19897;SDS011;10111;50.814;4.572;2022-10-17T08:25:02;6.67;;;4.40;;
19897;SDS011;10111;50.814;4.572;2022-10-17T08:27:27;8.20;;;4.83;;
19897;SDS011;10111;50.814;4.572;2022-10-17T08:29:53;8.93;;;5.53;;
19897;SDS011;10111;50.814;4.572;2022-10-17T08:32:23;6.67;;;4.17;;
19897;SDS011;10111;50.814;4.572;2022-10-17T08:34:52;8.63;;;4.60;;
19897;SDS011;10111;50.814;4.572;2022-10-17T08:37:20;6.17;;;4.93;;
19897;SDS011;10111;50.814;4.572;2022-10-17T08:39:46;4.13;;;3.60;;
19897;SDS011;10111;50.814;4.572;2022-10-17T08:42:26;4.13;;;3.67;;
19897;SDS011;10111;50.814;4.572;2022-10-17T08:45:14;4.07;;;3.63;;
19897;SDS011;10111;50.814;4.572;2022-10-17T08:48:08;6.47;;;4.50;;
19897;SDS011;10111;50.814;4.572;2022-10-17T08:50:42;5.70;;;4.33;;
19897;SDS011;10111;50.814;4.572;2022-10-17T08:53:18;7.33;;;4.53;;
19897;SDS011;10111;50.814;4.572;2022-10-17T08:55:46;6.47;;;5.00;;
19897;SDS011;10111;50.814;4.572;2022-10-17T08:58:16;7.07;;;4.13;;
19897;SDS011;10111;50.814;4.572;2022-10-17T09:03:44;5.47;;;4.67;;
19897;SDS011;10111;50.814;4.572;2022-10-17T09:06:35;6.37;;;4.40;;
19897;SDS011;10111;50.814;4.572;2022-10-17T09:09:11;7.20;;;4.27;;
19897;SDS011;10111;50.814;4.572;2022-10-17T09:14:29;6.63;;;4.87;;
19897;SDS011;10111;50.814;4.572;2022-10-17T09:19:40;6.67;;;4.93;;
19897;SDS011;10111;50.814;4.572;2022-10-17T09:22:17;5.70;;;5.03;;
19897;SDS011;10111;50.814;4.572;2022-10-17T09:24:51;6.60;;;4.80;;
19897;SDS011;10111;50.814;4.572;2022-10-17T09:27:49;5.30;;;4.77;;
19897;SDS011;10111;50.814;4.572;2022-10-17T09:30:21;8.23;;;5.27;;
19897;SDS011;10111;50.814;4.572;2022-10-17T09:32:57;8.47;;;5.20;;
19897;SDS011;10111;50.814;4.572;2022-10-17T09:35:23;6.20;;;5.07;;
19897;SDS011;10111;50.814;4.572;2022-10-17T09:37:50;6.10;;;5.50;;
19897;SDS011;10111;50.814;4.572;2022-10-17T09:40:19;7.60;;;5.30;;
19897;SDS011;10111;50.814;4.572;2022-10-17T09:42:49;7.73;;;4.67;;
19897;SDS011;10111;50.814;4.572;2022-10-17T09:45:17;7.53;;;5.30;;
19897;SDS011;10111;50.814;4.572;2022-10-17T09:50:26;6.33;;;5.10;;
19897;SDS011;10111;50.814;4.572;2022-10-17T09:52:54;6.87;;;5.10;;
19897;SDS011;10111;50.814;4.572;2022-10-17T09:55:26;6.80;;;4.47;;
19897;SDS011;10111;50.814;4.572;2022-10-17T09:58:01;5.67;;;5.00;;
19897;SDS011;10111;50.814;4.572;2022-10-17T10:00:47;8.40;;;4.93;;
19897;SDS011;10111;50.814;4.572;2022-10-17T10:11:02;6.10;;;4.37;;
19897;SDS011;10111;50.814;4.572;2022-10-17T10:13:31;6.20;;;4.83;;
19897;SDS011;10111;50.814;4.572;2022-10-17T10:18:44;10.33;;;6.03;;
19897;SDS011;10111;50.814;4.572;2022-10-17T10:21:17;9.13;;;5.13;;
19897;SDS011;10111;50.814;4.572;2022-10-17T10:24:01;8.57;;;6.10;;
19897;SDS011;10111;50.814;4.572;2022-10-17T10:26:46;6.13;;;4.97;;
19897;SDS011;10111;50.814;4.572;2022-10-17T10:31:45;7.67;;;5.80;;
19897;SDS011;10111;50.814;4.572;2022-10-17T10:34:17;8.13;;;4.70;;
19897;SDS011;10111;50.814;4.572;2022-10-17T10:36:59;7.57;;;4.70;;
19897;SDS011;10111;50.814;4.572;2022-10-17T10:39:30;5.97;;;5.30;;
19897;SDS011;10111;50.814;4.572;2022-10-17T10:42:00;6.73;;;5.30;;
19897;SDS011;10111;50.814;4.572;2022-10-17T10:44:29;17.97;;;6.30;;
19897;SDS011;10111;50.814;4.572;2022-10-17T10:47:07;8.70;;;4.73;;
19897;SDS011;10111;50.814;4.572;2022-10-17T10:49:52;10.80;;;5.17;;
19897;SDS011;10111;50.814;4.572;2022-10-17T10:52:33;9.73;;;4.70;;
19897;SDS011;10111;50.814;4.572;2022-10-17T10:55:23;5.97;;;4.97;;
19897;SDS011;10111;50.814;4.572;2022-10-17T10:57:55;7.70;;;5.80;;
19897;SDS011;10111;50.814;4.572;2022-10-17T11:00:25;6.30;;;4.60;;
19897;SDS011;10111;50.814;4.572;2022-10-17T11:02:58;8.57;;;4.03;;
19897;SDS011;10111;50.814;4.572;2022-10-17T11:08:14;4.43;;;3.77;;
19897;SDS011;10111;50.814;4.572;2022-10-17T11:13:50;6.40;;;4.17;;
19897;SDS011;10111;50.814;4.572;2022-10-17T11:16:19;5.07;;;4.47;;
19897;SDS011;10111;50.814;4.572;2022-10-17T11:21:45;5.43;;;4.53;;
19897;SDS011;10111;50.814;4.572;2022-10-17T11:24:38;5.43;;;4.03;;
19897;SDS011;10111;50.814;4.572;2022-10-17T11:27:21;4.60;;;4.13;;
19897;SDS011;10111;50.814;4.572;2022-10-17T11:29:48;7.13;;;3.83;;
19897;SDS011;10111;50.814;4.572;2022-10-17T11:34:46;6.47;;;4.07;;
19897;SDS011;10111;50.814;4.572;2022-10-17T11:37:16;8.97;;;4.47;;
19897;SDS011;10111;50.814;4.572;2022-10-17T11:40:02;7.77;;;4.30;;
19897;SDS011;10111;50.814;4.572;2022-10-17T11:42:40;6.97;;;4.30;;
19897;SDS011;10111;50.814;4.572;2022-10-17T11:45:17;5.30;;;4.27;;
19897;SDS011;10111;50.814;4.572;2022-10-17T11:48:03;6.87;;;3.70;;
19897;SDS011;10111;50.814;4.572;2022-10-17T11:50:36;5.50;;;4.13;;
19897;SDS011;10111;50.814;4.572;2022-10-17T11:53:08;6.93;;;4.00;;
19897;SDS011;10111;50.814;4.572;2022-10-17T11:55:38;5.27;;;3.80;;
19897;SDS011;10111;50.814;4.572;2022-10-17T11:58:15;6.93;;;4.60;;
19897;SDS011;10111;50.814;4.572;2022-10-17T12:01:06;8.20;;;4.87;;
19897;SDS011;10111;50.814;4.572;2022-10-17T12:03:56;7.93;;;5.23;;
19897;SDS011;10111;50.814;4.572;2022-10-17T12:06:47;7.97;;;4.07;;
19897;SDS011;10111;50.814;4.572;2022-10-17T12:12:02;5.80;;;3.97;;
19897;SDS011;10111;50.814;4.572;2022-10-17T12:14:44;5.50;;;3.63;;
19897;SDS011;10111;50.814;4.572;2022-10-17T12:22:51;5.80;;;3.83;;
19897;SDS011;10111;50.814;4.572;2022-10-17T12:25:20;6.73;;;4.37;;
19897;SDS011;10111;50.814;4.572;2022-10-17T12:28:15;5.90;;;4.77;;
19897;SDS011;10111;50.814;4.572;2022-10-17T12:30:51;8.50;;;4.00;;
19897;SDS011;10111;50.814;4.572;2022-10-17T12:33:18;5.30;;;3.63;;
19897;SDS011;10111;50.814;4.572;2022-10-17T12:38:42;15.57;;;6.03;;
19897;SDS011;10111;50.814;4.572;2022-10-17T12:41:09;6.07;;;3.37;;
19897;SDS011;10111;50.814;4.572;2022-10-17T12:43:56;7.63;;;4.83;;
19897;SDS011;10111;50.814;4.572;2022-10-17T12:49:19;4.30;;;3.63;;
19897;SDS011;10111;50.814;4.572;2022-10-17T12:57:33;7.50;;;4.27;;
19897;SDS011;10111;50.814;4.572;2022-10-17T13:00:01;7.00;;;3.90;;
19897;SDS011;10111;50.814;4.572;2022-10-17T13:02:36;5.53;;;3.33;;
19897;SDS011;10111;50.814;4.572;2022-10-17T13:05:04;5.63;;;4.07;;
19897;SDS011;10111;50.814;4.572;2022-10-17T13:07:35;5.20;;;3.87;;
19897;SDS011;10111;50.814;4.572;2022-10-17T13:10:05;5.13;;;3.97;;
19897;SDS011;10111;50.814;4.572;2022-10-17T13:12:32;5.83;;;4.67;;
19897;SDS011;10111;50.814;4.572;2022-10-17T13:15:01;5.30;;;4.13;;
19897;SDS011;10111;50.814;4.572;2022-10-17T13:17:30;6.70;;;3.77;;
19897;SDS011;10111;50.814;4.572;2022-10-17T13:19:56;6.67;;;4.33;;
19897;SDS011;10111;50.814;4.572;2022-10-17T13:22:26;6.60;;;4.50;;
19897;SDS011;10111;50.814;4.572;2022-10-17T13:25:08;6.70;;;4.77;;
19897;SDS011;10111;50.814;4.572;2022-10-17T13:27:38;6.70;;;4.40;;
19897;SDS011;10111;50.814;4.572;2022-10-17T13:30:26;7.47;;;6.27;;
19897;SDS011;10111;50.814;4.572;2022-10-17T13:32:51;5.07;;;4.57;;
19897;SDS011;10111;50.814;4.572;2022-10-17T13:35:31;5.07;;;4.47;;
19897;SDS011;10111;50.814;4.572;2022-10-17T13:38:00;4.60;;;4.20;;
19897;SDS011;10111;50.814;4.572;2022-10-17T13:40:29;9.03;;;4.60;;
19897;SDS011;10111;50.814;4.572;2022-10-17T13:42:56;4.50;;;4.10;;
19897;SDS011;10111;50.814;4.572;2022-10-17T13:45:32;6.67;;;4.57;;
19897;SDS011;10111;50.814;4.572;2022-10-17T13:48:04;8.97;;;4.40;;
19897;SDS011;10111;50.814;4.572;2022-10-17T13:50:40;6.50;;;4.53;;
19897;SDS011;10111;50.814;4.572;2022-10-17T13:55:57;4.70;;;4.10;;
19897;SDS011;10111;50.814;4.572;2022-10-17T13:58:36;4.07;;;3.73;;
19897;SDS011;10111;50.814;4.572;2022-10-17T14:01:06;4.73;;;3.90;;
19897;SDS011;10111;50.814;4.572;2022-10-17T14:03:32;4.93;;;3.83;;
19897;SDS011;10111;50.814;4.572;2022-10-17T14:06:06;3.43;;;2.90;;
19897;SDS011;10111;50.814;4.572;2022-10-17T14:11:34;3.37;;;3.10;;
19897;SDS011;10111;50.814;4.572;2022-10-17T14:14:00;4.20;;;3.53;;
19897;SDS011;10111;50.814;4.572;2022-10-17T14:16:39;4.00;;;3.37;;
19897;SDS011;10111;50.814;4.572;2022-10-17T14:19:12;4.90;;;3.97;;
19897;SDS011;10111;50.814;4.572;2022-10-17T14:22:17;4.00;;;3.10;;
19897;SDS011;10111;50.814;4.572;2022-10-17T14:24:45;4.30;;;2.97;;
19897;SDS011;10111;50.814;4.572;2022-10-17T14:29:50;4.97;;;3.57;;
19897;SDS011;10111;50.814;4.572;2022-10-17T14:32:17;5.47;;;3.80;;
19897;SDS011;10111;50.814;4.572;2022-10-17T14:34:45;3.77;;;2.87;;
19897;SDS011;10111;50.814;4.572;2022-10-17T14:37:22;5.00;;;3.20;;
19897;SDS011;10111;50.814;4.572;2022-10-17T14:39:59;4.37;;;2.97;;
19897;SDS011;10111;50.814;4.572;2022-10-17T14:42:26;4.43;;;3.07;;
19897;SDS011;10111;50.814;4.572;2022-10-17T14:44:52;6.20;;;3.13;;
19897;SDS011;10111;50.814;4.572;2022-10-17T14:47:22;4.37;;;2.93;;
19897;SDS011;10111;50.814;4.572;2022-10-17T14:50:02;4.10;;;3.07;;
19897;SDS011;10111;50.814;4.572;2022-10-17T14:52:58;4.93;;;2.97;;
19897;SDS011;10111;50.814;4.572;2022-10-17T14:55:25;3.10;;;2.60;;
19897;SDS011;10111;50.814;4.572;2022-10-17T14:57:52;4.03;;;2.87;;
19897;SDS011;10111;50.814;4.572;2022-10-17T15:00:19;5.60;;;3.70;;
19897;SDS011;10111;50.814;4.572;2022-10-17T15:02:46;3.30;;;3.00;;
19897;SDS011;10111;50.814;4.572;2022-10-17T15:05:14;7.57;;;3.63;;
19897;SDS011;10111;50.814;4.572;2022-10-17T15:07:40;3.90;;;3.40;;
19897;SDS011;10111;50.814;4.572;2022-10-17T15:10:08;3.80;;;3.50;;
19897;SDS011;10111;50.814;4.572;2022-10-17T15:12:49;5.43;;;3.20;;
19897;SDS011;10111;50.814;4.572;2022-10-17T15:15:14;3.93;;;3.53;;
19897;SDS011;10111;50.814;4.572;2022-10-17T15:17:40;9.53;;;3.73;;
19897;SDS011;10111;50.814;4.572;2022-10-17T15:20:16;3.70;;;3.30;;
19897;SDS011;10111;50.814;4.572;2022-10-17T15:22:42;7.10;;;3.40;;
19897;SDS011;10111;50.814;4.572;2022-10-17T15:25:07;2.97;;;2.77;;
19897;SDS011;10111;50.814;4.572;2022-10-17T15:27:36;3.73;;;3.43;;
19897;SDS011;10111;50.814;4.572;2022-10-17T15:30:02;3.93;;;3.23;;
19897;SDS011;10111;50.814;4.572;2022-10-17T15:32:28;3.50;;;3.20;;
19897;SDS011;10111;50.814;4.572;2022-10-17T15:34:53;3.97;;;3.33;;
19897;SDS011;10111;50.814;4.572;2022-10-17T15:37:20;3.93;;;2.97;;
19897;SDS011;10111;50.814;4.572;2022-10-17T15:39:48;4.00;;;3.70;;
19897;SDS011;10111;50.814;4.572;2022-10-17T15:42:17;4.47;;;3.03;;
19897;SDS011;10111;50.814;4.572;2022-10-17T15:44:43;6.20;;;3.43;;
19897;SDS011;10111;50.814;4.572;2022-10-17T15:47:18;6.57;;;3.00;;
19897;SDS011;10111;50.814;4.572;2022-10-17T15:49:51;4.03;;;3.67;;
19897;SDS011;10111;50.814;4.572;2022-10-17T15:52:18;6.67;;;3.33;;
19897;SDS011;10111;50.814;4.572;2022-10-17T15:54:43;3.63;;;2.97;;
19897;SDS011;10111;50.814;4.572;2022-10-17T15:57:17;4.37;;;3.23;;
19897;SDS011;10111;50.814;4.572;2022-10-17T15:59:48;5.40;;;3.30;;
19897;SDS011;10111;50.814;4.572;2022-10-17T16:02:15;5.03;;;4.07;;
19897;SDS011;10111;50.814;4.572;2022-10-17T16:04:42;5.20;;;3.27;;
19897;SDS011;10111;50.814;4.572;2022-10-17T16:07:08;4.50;;;3.07;;
19897;SDS011;10111;50.814;4.572;2022-10-17T16:09:34;6.67;;;2.67;;
19897;SDS011;10111;50.814;4.572;2022-10-17T16:12:09;4.73;;;3.60;;
19897;SDS011;10111;50.814;4.572;2022-10-17T16:14:37;4.10;;;3.23;;
19897;SDS011;10111;50.814;4.572;2022-10-17T16:17:03;3.43;;;2.67;;
19897;SDS011;10111;50.814;4.572;2022-10-17T16:19:29;3.83;;;3.00;;
19897;SDS011;10111;50.814;4.572;2022-10-17T16:21:55;6.23;;;3.40;;
19897;SDS011;10111;50.814;4.572;2022-10-17T16:24:22;4.30;;;3.10;;
19897;SDS011;10111;50.814;4.572;2022-10-17T16:26:48;4.67;;;3.00;;
19897;SDS011;10111;50.814;4.572;2022-10-17T16:29:14;7.00;;;3.47;;
19897;SDS011;10111;50.814;4.572;2022-10-17T16:31:41;6.23;;;3.43;;
19897;SDS011;10111;50.814;4.572;2022-10-17T16:34:09;3.63;;;3.10;;
19897;SDS011;10111;50.814;4.572;2022-10-17T16:36:37;5.40;;;3.13;;
19897;SDS011;10111;50.814;4.572;2022-10-17T16:39:03;3.90;;;3.30;;
19897;SDS011;10111;50.814;4.572;2022-10-17T16:41:30;5.27;;;3.73;;
19897;SDS011;10111;50.814;4.572;2022-10-17T16:43:59;7.10;;;4.37;;